sensor_id;sensor_type;location;lat;lon;timestamp;P1;durP1;ratioP1;P2;durP2;ratioP2
5807;SDS011;2930;42.678;23.312;2023-04-05T00:00:27;0.30;;;0.20;;
5807;SDS011;2930;42.678;23.312;2023-04-05T00:02:57;0.10;;;0.10;;
5807;SDS011;2930;42.678;23.312;2023-04-05T00:05:28;0.20;;;0.20;;
5807;SDS011;2930;42.678;23.312;2023-04-05T00:07:57;0.10;;;0.10;;
5807;SDS011;2930;42.678;23.312;2023-04-05T00:10:24;0.33;;;0.33;;
5807;SDS011;2930;42.678;23.312;2023-04-05T00:12:56;0.10;;;0.10;;
5807;SDS011;2930;42.678;23.312;2023-04-05T00:15:22;0.03;;;0.03;;
5807;SDS011;2930;42.678;23.312;2023-04-05T00:17:48;0.53;;;0.33;;
5807;SDS011;2930;42.678;23.312;2023-04-05T00:20:14;0.20;;;0.20;;
5807;SDS011;2930;42.678;23.312;2023-04-05T00:22:40;0.10;;;0.10;;
5807;SDS011;2930;42.678;23.312;2023-04-05T00:25:10;0.10;;;0.10;;
5807;SDS011;2930;42.678;23.312;2023-04-05T00:27:36;0.37;;;0.17;;
5807;SDS011;2930;42.678;23.312;2023-04-05T00:30:03;0.20;;;0.20;;
5807;SDS011;2930;42.678;23.312;2023-04-05T00:32:29;0.10;;;0.10;;
5807;SDS011;2930;42.678;23.312;2023-04-05T00:34:55;0.10;;;0.10;;
5807;SDS011;2930;42.678;23.312;2023-04-05T00:37:20;0.20;;;0.20;;
5807;SDS011;2930;42.678;23.312;2023-04-05T00:39:46;0.27;;;0.27;;
5807;SDS011;2930;42.678;23.312;2023-04-05T00:42:12;0.30;;;0.30;;
5807;SDS011;2930;42.678;23.312;2023-04-05T00:44:38;0.10;;;0.10;;
5807;SDS011;2930;42.678;23.312;2023-04-05T00:47:04;0.20;;;0.20;;
5807;SDS011;2930;42.678;23.312;2023-04-05T00:49:32;0.10;;;0.10;;
5807;SDS011;2930;42.678;23.312;2023-04-05T00:51:58;0.30;;;0.30;;
5807;SDS011;2930;42.678;23.312;2023-04-05T00:54:25;0.10;;;0.10;;
5807;SDS011;2930;42.678;23.312;2023-04-05T00:56:52;0.10;;;0.10;;
5807;SDS011;2930;42.678;23.312;2023-04-05T00:59:19;0.20;;;0.20;;
5807;SDS011;2930;42.678;23.312;2023-04-05T01:01:45;0.10;;;0.10;;
5807;SDS011;2930;42.678;23.312;2023-04-05T01:04:18;0.30;;;0.10;;
5807;SDS011;2930;42.678;23.312;2023-04-05T01:06:59;0.10;;;0.10;;
5807;SDS011;2930;42.678;23.312;2023-04-05T01:09:52;0.10;;;0.10;;
5807;SDS011;2930;42.678;23.312;2023-04-05T01:12:20;0.10;;;0.10;;
5807;SDS011;2930;42.678;23.312;2023-04-05T01:14:51;0.10;;;0.10;;
5807;SDS011;2930;42.678;23.312;2023-04-05T01:17:19;0.00;;;0.00;;
5807;SDS011;2930;42.678;23.312;2023-04-05T01:19:49;0.17;;;0.17;;
5807;SDS011;2930;42.678;23.312;2023-04-05T01:30:25;0.20;;;0.20;;
5807;SDS011;2930;42.678;23.312;2023-04-05T01:38:26;0.00;;;0.00;;
5807;SDS011;2930;42.678;23.312;2023-04-05T01:40:53;0.10;;;0.10;;
5807;SDS011;2930;42.678;23.312;2023-04-05T01:43:19;0.20;;;0.20;;
5807;SDS011;2930;42.678;23.312;2023-04-05T01:45:45;0.10;;;0.10;;
5807;SDS011;2930;42.678;23.312;2023-04-05T01:48:11;0.10;;;0.10;;
5807;SDS011;2930;42.678;23.312;2023-04-05T01:50:38;0.17;;;0.17;;
5807;SDS011;2930;42.678;23.312;2023-04-05T01:53:05;0.10;;;0.10;;
5807;SDS011;2930;42.678;23.312;2023-04-05T01:55:31;0.10;;;0.10;;
5807;SDS011;2930;42.678;23.312;2023-04-05T01:57:57;0.00;;;0.00;;
5807;SDS011;2930;42.678;23.312;2023-04-05T02:00:22;0.10;;;0.10;;
5807;SDS011;2930;42.678;23.312;2023-04-05T02:02:48;0.10;;;0.10;;
5807;SDS011;2930;42.678;23.312;2023-04-05T02:05:14;0.20;;;0.20;;
5807;SDS011;2930;42.678;23.312;2023-04-05T02:07:40;0.20;;;0.20;;
5807;SDS011;2930;42.678;23.312;2023-04-05T02:10:06;0.83;;;0.10;;
5807;SDS011;2930;42.678;23.312;2023-04-05T02:12:32;0.10;;;0.10;;
5807;SDS011;2930;42.678;23.312;2023-04-05T02:14:57;0.10;;;0.10;;
5807;SDS011;2930;42.678;23.312;2023-04-05T02:17:24;0.10;;;0.10;;
5807;SDS011;2930;42.678;23.312;2023-04-05T02:19:49;0.10;;;0.10;;
5807;SDS011;2930;42.678;23.312;2023-04-05T02:22:17;0.30;;;0.30;;
5807;SDS011;2930;42.678;23.312;2023-04-05T02:24:43;0.10;;;0.10;;
5807;SDS011;2930;42.678;23.312;2023-04-05T02:27:09;0.20;;;0.20;;
5807;SDS011;2930;42.678;23.312;2023-04-05T02:29:35;0.03;;;0.03;;
5807;SDS011;2930;42.678;23.312;2023-04-05T02:32:01;0.10;;;0.10;;
5807;SDS011;2930;42.678;23.312;2023-04-05T02:34:26;0.10;;;0.10;;
5807;SDS011;2930;42.678;23.312;2023-04-05T02:36:52;0.00;;;0.00;;
5807;SDS011;2930;42.678;23.312;2023-04-05T02:39:18;0.03;;;0.03;;
5807;SDS011;2930;42.678;23.312;2023-04-05T02:41:44;0.10;;;0.10;;
5807;SDS011;2930;42.678;23.312;2023-04-05T02:44:11;0.10;;;0.10;;
5807;SDS011;2930;42.678;23.312;2023-04-05T02:46:37;0.10;;;0.10;;
5807;SDS011;2930;42.678;23.312;2023-04-05T02:49:02;0.10;;;0.10;;
5807;SDS011;2930;42.678;23.312;2023-04-05T02:51:28;0.10;;;0.10;;
5807;SDS011;2930;42.678;23.312;2023-04-05T02:53:54;0.10;;;0.10;;
5807;SDS011;2930;42.678;23.312;2023-04-05T02:56:20;0.10;;;0.10;;
5807;SDS011;2930;42.678;23.312;2023-04-05T02:58:46;0.10;;;0.10;;
5807;SDS011;2930;42.678;23.312;2023-04-05T03:01:13;0.10;;;0.10;;
5807;SDS011;2930;42.678;23.312;2023-04-05T03:03:41;0.03;;;0.03;;
5807;SDS011;2930;42.678;23.312;2023-04-05T03:06:07;0.10;;;0.10;;
5807;SDS011;2930;42.678;23.312;2023-04-05T03:08:39;2.10;;;0.40;;
5807;SDS011;2930;42.678;23.312;2023-04-05T03:11:10;0.10;;;0.10;;
5807;SDS011;2930;42.678;23.312;2023-04-05T03:13:36;0.10;;;0.10;;
5807;SDS011;2930;42.678;23.312;2023-04-05T03:16:02;0.10;;;0.10;;
5807;SDS011;2930;42.678;23.312;2023-04-05T03:18:28;0.00;;;0.00;;
5807;SDS011;2930;42.678;23.312;2023-04-05T03:20:54;0.10;;;0.10;;
5807;SDS011;2930;42.678;23.312;2023-04-05T03:23:24;0.10;;;0.10;;
5807;SDS011;2930;42.678;23.312;2023-04-05T03:25:59;0.13;;;0.13;;
5807;SDS011;2930;42.678;23.312;2023-04-05T03:28:25;0.10;;;0.10;;
5807;SDS011;2930;42.678;23.312;2023-04-05T03:30:51;0.43;;;0.30;;
5807;SDS011;2930;42.678;23.312;2023-04-05T03:33:18;0.30;;;0.30;;
5807;SDS011;2930;42.678;23.312;2023-04-05T03:35:44;0.10;;;0.10;;
5807;SDS011;2930;42.678;23.312;2023-04-05T03:38:10;0.10;;;0.10;;
5807;SDS011;2930;42.678;23.312;2023-04-05T03:40:36;0.10;;;0.10;;
5807;SDS011;2930;42.678;23.312;2023-04-05T03:43:02;0.07;;;0.07;;
5807;SDS011;2930;42.678;23.312;2023-04-05T03:45:28;0.00;;;0.00;;
5807;SDS011;2930;42.678;23.312;2023-04-05T03:47:55;0.10;;;0.10;;
5807;SDS011;2930;42.678;23.312;2023-04-05T03:50:22;0.10;;;0.10;;
5807;SDS011;2930;42.678;23.312;2023-04-05T03:52:48;0.10;;;0.10;;
5807;SDS011;2930;42.678;23.312;2023-04-05T03:55:13;0.10;;;0.10;;
5807;SDS011;2930;42.678;23.312;2023-04-05T03:57:41;0.30;;;0.30;;
5807;SDS011;2930;42.678;23.312;2023-04-05T04:00:07;0.30;;;0.30;;
5807;SDS011;2930;42.678;23.312;2023-04-05T04:02:44;0.20;;;0.20;;
5807;SDS011;2930;42.678;23.312;2023-04-05T04:05:14;0.57;;;0.10;;
5807;SDS011;2930;42.678;23.312;2023-04-05T04:07:41;0.33;;;0.33;;
5807;SDS011;2930;42.678;23.312;2023-04-05T04:10:08;0.20;;;0.20;;
5807;SDS011;2930;42.678;23.312;2023-04-05T04:12:35;0.10;;;0.10;;
5807;SDS011;2930;42.678;23.312;2023-04-05T04:15:01;0.00;;;0.00;;
5807;SDS011;2930;42.678;23.312;2023-04-05T04:17:31;0.30;;;0.30;;
5807;SDS011;2930;42.678;23.312;2023-04-05T04:19:58;0.10;;;0.10;;
5807;SDS011;2930;42.678;23.312;2023-04-05T04:22:24;0.10;;;0.10;;
5807;SDS011;2930;42.678;23.312;2023-04-05T04:24:53;0.23;;;0.23;;
5807;SDS011;2930;42.678;23.312;2023-04-05T04:27:19;0.10;;;0.10;;
5807;SDS011;2930;42.678;23.312;2023-04-05T04:29:45;0.27;;;0.27;;
5807;SDS011;2930;42.678;23.312;2023-04-05T04:32:13;0.10;;;0.10;;
5807;SDS011;2930;42.678;23.312;2023-04-05T04:34:39;0.10;;;0.10;;
5807;SDS011;2930;42.678;23.312;2023-04-05T04:37:12;0.03;;;0.03;;
5807;SDS011;2930;42.678;23.312;2023-04-05T04:39:45;0.30;;;0.30;;
5807;SDS011;2930;42.678;23.312;2023-04-05T04:42:12;0.13;;;0.13;;
5807;SDS011;2930;42.678;23.312;2023-04-05T04:44:46;0.00;;;0.00;;
5807;SDS011;2930;42.678;23.312;2023-04-05T04:47:13;0.30;;;0.30;;
5807;SDS011;2930;42.678;23.312;2023-04-05T04:49:41;0.40;;;0.40;;
5807;SDS011;2930;42.678;23.312;2023-04-05T04:52:07;0.30;;;0.30;;
5807;SDS011;2930;42.678;23.312;2023-04-05T04:54:34;0.10;;;0.10;;
5807;SDS011;2930;42.678;23.312;2023-04-05T04:57:00;0.10;;;0.10;;
5807;SDS011;2930;42.678;23.312;2023-04-05T04:59:27;0.43;;;0.43;;
5807;SDS011;2930;42.678;23.312;2023-04-05T05:01:53;0.10;;;0.10;;
5807;SDS011;2930;42.678;23.312;2023-04-05T05:04:19;0.13;;;0.13;;
5807;SDS011;2930;42.678;23.312;2023-04-05T05:06:45;0.17;;;0.17;;
5807;SDS011;2930;42.678;23.312;2023-04-05T05:09:14;0.10;;;0.00;;
5807;SDS011;2930;42.678;23.312;2023-04-05T05:11:39;0.00;;;0.00;;
5807;SDS011;2930;42.678;23.312;2023-04-05T05:14:05;0.10;;;0.10;;
5807;SDS011;2930;42.678;23.312;2023-04-05T05:16:31;0.10;;;0.10;;
5807;SDS011;2930;42.678;23.312;2023-04-05T05:18:57;0.10;;;0.10;;
5807;SDS011;2930;42.678;23.312;2023-04-05T05:21:23;0.00;;;0.00;;
5807;SDS011;2930;42.678;23.312;2023-04-05T05:23:48;0.00;;;0.00;;
5807;SDS011;2930;42.678;23.312;2023-04-05T05:26:15;0.00;;;0.00;;
5807;SDS011;2930;42.678;23.312;2023-04-05T05:28:40;0.10;;;0.10;;
5807;SDS011;2930;42.678;23.312;2023-04-05T05:31:07;0.10;;;0.10;;
5807;SDS011;2930;42.678;23.312;2023-04-05T05:33:33;0.10;;;0.10;;
5807;SDS011;2930;42.678;23.312;2023-04-05T05:35:58;0.03;;;0.03;;
5807;SDS011;2930;42.678;23.312;2023-04-05T05:38:24;0.00;;;0.00;;
5807;SDS011;2930;42.678;23.312;2023-04-05T05:40:56;0.00;;;0.00;;
5807;SDS011;2930;42.678;23.312;2023-04-05T05:43:22;0.07;;;0.07;;
5807;SDS011;2930;42.678;23.312;2023-04-05T05:45:48;0.10;;;0.10;;
5807;SDS011;2930;42.678;23.312;2023-04-05T05:48:14;0.10;;;0.10;;
5807;SDS011;2930;42.678;23.312;2023-04-05T05:50:40;0.10;;;0.10;;
5807;SDS011;2930;42.678;23.312;2023-04-05T05:53:06;0.00;;;0.00;;
5807;SDS011;2930;42.678;23.312;2023-04-05T05:55:31;0.10;;;0.10;;
5807;SDS011;2930;42.678;23.312;2023-04-05T05:57:57;1.50;;;0.20;;
5807;SDS011;2930;42.678;23.312;2023-04-05T06:00:23;0.10;;;0.10;;
5807;SDS011;2930;42.678;23.312;2023-04-05T06:02:49;0.27;;;0.27;;
5807;SDS011;2930;42.678;23.312;2023-04-05T06:05:16;0.10;;;0.10;;
5807;SDS011;2930;42.678;23.312;2023-04-05T06:07:41;0.10;;;0.10;;
5807;SDS011;2930;42.678;23.312;2023-04-05T06:10:07;0.20;;;0.20;;
5807;SDS011;2930;42.678;23.312;2023-04-05T06:12:33;0.10;;;0.10;;
5807;SDS011;2930;42.678;23.312;2023-04-05T06:14:59;0.57;;;0.10;;
5807;SDS011;2930;42.678;23.312;2023-04-05T06:17:26;0.10;;;0.10;;
5807;SDS011;2930;42.678;23.312;2023-04-05T06:19:52;0.10;;;0.10;;
5807;SDS011;2930;42.678;23.312;2023-04-05T06:22:18;0.47;;;0.20;;
5807;SDS011;2930;42.678;23.312;2023-04-05T06:24:43;0.10;;;0.10;;
5807;SDS011;2930;42.678;23.312;2023-04-05T06:27:09;0.20;;;0.20;;
5807;SDS011;2930;42.678;23.312;2023-04-05T06:29:35;0.10;;;0.10;;
5807;SDS011;2930;42.678;23.312;2023-04-05T06:32:00;0.10;;;0.10;;
5807;SDS011;2930;42.678;23.312;2023-04-05T06:34:26;0.27;;;0.20;;
5807;SDS011;2930;42.678;23.312;2023-04-05T06:36:52;0.07;;;0.07;;
5807;SDS011;2930;42.678;23.312;2023-04-05T06:39:17;0.17;;;0.17;;
5807;SDS011;2930;42.678;23.312;2023-04-05T06:41:43;0.10;;;0.10;;
5807;SDS011;2930;42.678;23.312;2023-04-05T06:44:09;0.10;;;0.10;;
5807;SDS011;2930;42.678;23.312;2023-04-05T06:46:35;0.00;;;0.00;;
5807;SDS011;2930;42.678;23.312;2023-04-05T06:49:00;0.27;;;0.27;;
5807;SDS011;2930;42.678;23.312;2023-04-05T06:51:26;0.10;;;0.10;;
5807;SDS011;2930;42.678;23.312;2023-04-05T06:53:53;0.10;;;0.10;;
5807;SDS011;2930;42.678;23.312;2023-04-05T06:56:19;0.10;;;0.10;;
5807;SDS011;2930;42.678;23.312;2023-04-05T06:58:45;0.10;;;0.10;;
5807;SDS011;2930;42.678;23.312;2023-04-05T07:01:11;0.10;;;0.10;;
5807;SDS011;2930;42.678;23.312;2023-04-05T07:03:37;0.10;;;0.10;;
5807;SDS011;2930;42.678;23.312;2023-04-05T07:06:03;0.10;;;0.10;;
5807;SDS011;2930;42.678;23.312;2023-04-05T07:08:29;1.37;;;0.20;;
5807;SDS011;2930;42.678;23.312;2023-04-05T07:10:56;0.10;;;0.10;;
5807;SDS011;2930;42.678;23.312;2023-04-05T07:13:23;1.13;;;0.13;;
5807;SDS011;2930;42.678;23.312;2023-04-05T07:15:50;0.10;;;0.10;;
5807;SDS011;2930;42.678;23.312;2023-04-05T07:18:16;0.10;;;0.10;;
5807;SDS011;2930;42.678;23.312;2023-04-05T07:20:46;0.20;;;0.20;;
5807;SDS011;2930;42.678;23.312;2023-04-05T07:23:15;0.10;;;0.10;;
5807;SDS011;2930;42.678;23.312;2023-04-05T07:25:42;0.10;;;0.10;;
5807;SDS011;2930;42.678;23.312;2023-04-05T07:28:07;0.17;;;0.17;;
5807;SDS011;2930;42.678;23.312;2023-04-05T07:30:33;3.87;;;0.13;;
5807;SDS011;2930;42.678;23.312;2023-04-05T07:33:00;0.17;;;0.17;;
5807;SDS011;2930;42.678;23.312;2023-04-05T07:35:26;0.10;;;0.10;;
5807;SDS011;2930;42.678;23.312;2023-04-05T07:37:52;0.00;;;0.00;;
5807;SDS011;2930;42.678;23.312;2023-04-05T07:40:18;0.17;;;0.17;;
5807;SDS011;2930;42.678;23.312;2023-04-05T07:42:43;0.10;;;0.10;;
5807;SDS011;2930;42.678;23.312;2023-04-05T07:45:09;0.13;;;0.13;;
5807;SDS011;2930;42.678;23.312;2023-04-05T07:47:35;0.10;;;0.10;;
5807;SDS011;2930;42.678;23.312;2023-04-05T07:50:01;0.10;;;0.10;;
5807;SDS011;2930;42.678;23.312;2023-04-05T07:52:27;0.20;;;0.20;;
5807;SDS011;2930;42.678;23.312;2023-04-05T07:54:52;0.60;;;0.13;;
5807;SDS011;2930;42.678;23.312;2023-04-05T07:57:19;0.10;;;0.10;;
5807;SDS011;2930;42.678;23.312;2023-04-05T07:59:44;0.20;;;0.20;;
5807;SDS011;2930;42.678;23.312;2023-04-05T08:02:14;0.20;;;0.20;;
5807;SDS011;2930;42.678;23.312;2023-04-05T08:04:40;0.20;;;0.20;;
5807;SDS011;2930;42.678;23.312;2023-04-05T08:07:06;0.20;;;0.20;;
5807;SDS011;2930;42.678;23.312;2023-04-05T08:09:31;0.20;;;0.20;;
5807;SDS011;2930;42.678;23.312;2023-04-05T08:11:58;0.10;;;0.10;;
5807;SDS011;2930;42.678;23.312;2023-04-05T08:14:26;0.10;;;0.10;;
5807;SDS011;2930;42.678;23.312;2023-04-05T08:16:52;0.10;;;0.10;;
5807;SDS011;2930;42.678;23.312;2023-04-05T08:19:18;0.10;;;0.10;;
5807;SDS011;2930;42.678;23.312;2023-04-05T08:21:44;0.63;;;0.10;;
5807;SDS011;2930;42.678;23.312;2023-04-05T08:24:09;0.10;;;0.10;;
5807;SDS011;2930;42.678;23.312;2023-04-05T08:26:35;0.20;;;0.20;;
5807;SDS011;2930;42.678;23.312;2023-04-05T08:29:01;0.23;;;0.23;;
5807;SDS011;2930;42.678;23.312;2023-04-05T08:31:26;0.00;;;0.00;;
5807;SDS011;2930;42.678;23.312;2023-04-05T08:33:52;0.00;;;0.00;;
5807;SDS011;2930;42.678;23.312;2023-04-05T08:36:18;0.17;;;0.17;;
5807;SDS011;2930;42.678;23.312;2023-04-05T08:38:43;0.10;;;0.10;;
5807;SDS011;2930;42.678;23.312;2023-04-05T08:41:16;0.27;;;0.27;;
5807;SDS011;2930;42.678;23.312;2023-04-05T08:43:53;0.20;;;0.20;;
5807;SDS011;2930;42.678;23.312;2023-04-05T08:46:26;0.10;;;0.10;;
5807;SDS011;2930;42.678;23.312;2023-04-05T08:48:56;0.27;;;0.20;;
5807;SDS011;2930;42.678;23.312;2023-04-05T08:51:26;0.10;;;0.10;;
5807;SDS011;2930;42.678;23.312;2023-04-05T08:53:52;0.50;;;0.10;;
5807;SDS011;2930;42.678;23.312;2023-04-05T08:56:25;0.20;;;0.17;;
5807;SDS011;2930;42.678;23.312;2023-04-05T08:58:55;0.13;;;0.13;;
5807;SDS011;2930;42.678;23.312;2023-04-05T09:01:22;0.10;;;0.10;;
5807;SDS011;2930;42.678;23.312;2023-04-05T09:03:50;0.10;;;0.10;;
5807;SDS011;2930;42.678;23.312;2023-04-05T09:06:17;0.20;;;0.20;;
5807;SDS011;2930;42.678;23.312;2023-04-05T09:08:45;0.23;;;0.23;;
5807;SDS011;2930;42.678;23.312;2023-04-05T09:11:11;0.10;;;0.10;;
5807;SDS011;2930;42.678;23.312;2023-04-05T09:13:37;0.53;;;0.20;;
5807;SDS011;2930;42.678;23.312;2023-04-05T09:16:03;0.20;;;0.20;;
5807;SDS011;2930;42.678;23.312;2023-04-05T09:18:29;0.13;;;0.13;;
5807;SDS011;2930;42.678;23.312;2023-04-05T09:21:05;0.33;;;0.33;;
5807;SDS011;2930;42.678;23.312;2023-04-05T09:23:32;0.17;;;0.17;;
5807;SDS011;2930;42.678;23.312;2023-04-05T09:25:58;0.10;;;0.10;;
5807;SDS011;2930;42.678;23.312;2023-04-05T09:28:40;0.17;;;0.17;;
5807;SDS011;2930;42.678;23.312;2023-04-05T09:31:08;0.30;;;0.30;;
5807;SDS011;2930;42.678;23.312;2023-04-05T09:33:34;0.20;;;0.20;;
5807;SDS011;2930;42.678;23.312;2023-04-05T09:36:01;0.10;;;0.10;;
5807;SDS011;2930;42.678;23.312;2023-04-05T09:38:42;0.20;;;0.20;;
5807;SDS011;2930;42.678;23.312;2023-04-05T09:41:11;0.17;;;0.17;;
5807;SDS011;2930;42.678;23.312;2023-04-05T09:43:37;0.10;;;0.10;;
5807;SDS011;2930;42.678;23.312;2023-04-05T09:46:04;0.30;;;0.10;;
5807;SDS011;2930;42.678;23.312;2023-04-05T09:48:49;0.10;;;0.10;;
5807;SDS011;2930;42.678;23.312;2023-04-05T09:51:15;0.23;;;0.23;;
5807;SDS011;2930;42.678;23.312;2023-04-05T09:56:28;0.17;;;0.17;;
5807;SDS011;2930;42.678;23.312;2023-04-05T09:58:59;0.97;;;0.20;;
5807;SDS011;2930;42.678;23.312;2023-04-05T10:01:35;0.20;;;0.20;;
5807;SDS011;2930;42.678;23.312;2023-04-05T10:04:02;0.20;;;0.20;;
5807;SDS011;2930;42.678;23.312;2023-04-05T10:09:00;0.23;;;0.23;;
5807;SDS011;2930;42.678;23.312;2023-04-05T10:11:26;0.13;;;0.13;;
5807;SDS011;2930;42.678;23.312;2023-04-05T10:13:53;0.30;;;0.30;;
5807;SDS011;2930;42.678;23.312;2023-04-05T10:16:19;0.20;;;0.20;;
5807;SDS011;2930;42.678;23.312;2023-04-05T10:18:49;0.30;;;0.30;;
5807;SDS011;2930;42.678;23.312;2023-04-05T10:21:23;0.30;;;0.30;;
5807;SDS011;2930;42.678;23.312;2023-04-05T10:23:54;0.20;;;0.20;;
5807;SDS011;2930;42.678;23.312;2023-04-05T10:26:43;0.47;;;0.40;;
5807;SDS011;2930;42.678;23.312;2023-04-05T10:29:21;0.40;;;0.40;;
5807;SDS011;2930;42.678;23.312;2023-04-05T10:31:58;0.50;;;0.50;;
5807;SDS011;2930;42.678;23.312;2023-04-05T10:37:17;0.30;;;0.27;;
5807;SDS011;2930;42.678;23.312;2023-04-05T10:40:00;0.13;;;0.13;;
5807;SDS011;2930;42.678;23.312;2023-04-05T10:42:32;0.30;;;0.30;;
5807;SDS011;2930;42.678;23.312;2023-04-05T10:45:07;0.30;;;0.30;;
5807;SDS011;2930;42.678;23.312;2023-04-05T10:50:49;0.73;;;0.40;;
5807;SDS011;2930;42.678;23.312;2023-04-05T10:53:15;0.30;;;0.30;;
5807;SDS011;2930;42.678;23.312;2023-04-05T10:55:43;0.20;;;0.20;;
5807;SDS011;2930;42.678;23.312;2023-04-05T10:58:10;0.37;;;0.30;;
5807;SDS011;2930;42.678;23.312;2023-04-05T11:00:39;0.30;;;0.30;;
5807;SDS011;2930;42.678;23.312;2023-04-05T11:03:05;0.37;;;0.37;;
5807;SDS011;2930;42.678;23.312;2023-04-05T11:05:32;0.20;;;0.20;;
5807;SDS011;2930;42.678;23.312;2023-04-05T11:07:59;0.30;;;0.30;;
5807;SDS011;2930;42.678;23.312;2023-04-05T11:10:28;0.20;;;0.20;;
5807;SDS011;2930;42.678;23.312;2023-04-05T11:18:07;0.40;;;0.30;;
5807;SDS011;2930;42.678;23.312;2023-04-05T11:20:48;0.27;;;0.27;;
5807;SDS011;2930;42.678;23.312;2023-04-05T11:23:17;0.40;;;0.40;;
5807;SDS011;2930;42.678;23.312;2023-04-05T11:25:45;0.20;;;0.20;;
5807;SDS011;2930;42.678;23.312;2023-04-05T11:28:21;5.20;;;0.50;;
5807;SDS011;2930;42.678;23.312;2023-04-05T11:30:51;0.37;;;0.33;;
5807;SDS011;2930;42.678;23.312;2023-04-05T11:36:10;0.60;;;0.40;;
5807;SDS011;2930;42.678;23.312;2023-04-05T11:38:37;0.20;;;0.20;;
5807;SDS011;2930;42.678;23.312;2023-04-05T11:43:31;0.23;;;0.23;;
5807;SDS011;2930;42.678;23.312;2023-04-05T11:46:00;0.40;;;0.40;;
5807;SDS011;2930;42.678;23.312;2023-04-05T11:48:28;0.20;;;0.20;;
5807;SDS011;2930;42.678;23.312;2023-04-05T11:50:53;0.40;;;0.40;;
5807;SDS011;2930;42.678;23.312;2023-04-05T11:53:21;0.57;;;0.57;;
5807;SDS011;2930;42.678;23.312;2023-04-05T11:55:48;0.43;;;0.43;;
5807;SDS011;2930;42.678;23.312;2023-04-05T11:58:15;0.40;;;0.40;;
5807;SDS011;2930;42.678;23.312;2023-04-05T12:00:56;2.43;;;0.50;;
5807;SDS011;2930;42.678;23.312;2023-04-05T12:03:26;0.30;;;0.30;;
5807;SDS011;2930;42.678;23.312;2023-04-05T12:05:59;0.50;;;0.50;;
5807;SDS011;2930;42.678;23.312;2023-04-05T12:11:13;0.60;;;0.60;;
5807;SDS011;2930;42.678;23.312;2023-04-05T12:13:40;0.30;;;0.30;;
5807;SDS011;2930;42.678;23.312;2023-04-05T12:16:06;0.40;;;0.40;;
5807;SDS011;2930;42.678;23.312;2023-04-05T12:18:36;0.40;;;0.40;;
5807;SDS011;2930;42.678;23.312;2023-04-05T12:21:11;0.70;;;0.57;;
5807;SDS011;2930;42.678;23.312;2023-04-05T12:23:37;0.57;;;0.57;;
5807;SDS011;2930;42.678;23.312;2023-04-05T12:26:03;0.70;;;0.50;;
5807;SDS011;2930;42.678;23.312;2023-04-05T12:29:04;0.50;;;0.50;;
5807;SDS011;2930;42.678;23.312;2023-04-05T12:34:11;1.10;;;0.93;;
5807;SDS011;2930;42.678;23.312;2023-04-05T12:36:38;0.60;;;0.60;;
5807;SDS011;2930;42.678;23.312;2023-04-05T12:39:08;1.00;;;1.00;;
5807;SDS011;2930;42.678;23.312;2023-04-05T12:41:34;0.60;;;0.60;;
5807;SDS011;2930;42.678;23.312;2023-04-05T12:44:04;0.53;;;0.53;;
5807;SDS011;2930;42.678;23.312;2023-04-05T12:46:46;0.57;;;0.57;;
5807;SDS011;2930;42.678;23.312;2023-04-05T12:49:12;0.83;;;0.83;;
5807;SDS011;2930;42.678;23.312;2023-04-05T12:51:43;2.13;;;0.80;;
5807;SDS011;2930;42.678;23.312;2023-04-05T12:54:13;0.70;;;0.70;;
5807;SDS011;2930;42.678;23.312;2023-04-05T12:56:40;1.30;;;0.77;;
5807;SDS011;2930;42.678;23.312;2023-04-05T12:59:06;0.93;;;0.87;;
5807;SDS011;2930;42.678;23.312;2023-04-05T13:01:32;1.00;;;1.00;;
5807;SDS011;2930;42.678;23.312;2023-04-05T13:03:58;0.60;;;0.60;;
5807;SDS011;2930;42.678;23.312;2023-04-05T13:06:25;0.80;;;0.80;;
5807;SDS011;2930;42.678;23.312;2023-04-05T13:08:51;0.70;;;0.70;;
5807;SDS011;2930;42.678;23.312;2023-04-05T13:11:17;0.60;;;0.60;;
5807;SDS011;2930;42.678;23.312;2023-04-05T13:13:43;0.27;;;0.27;;
5807;SDS011;2930;42.678;23.312;2023-04-05T13:16:09;0.50;;;0.50;;
5807;SDS011;2930;42.678;23.312;2023-04-05T13:18:35;0.53;;;0.53;;
5807;SDS011;2930;42.678;23.312;2023-04-05T13:21:00;0.60;;;0.60;;
5807;SDS011;2930;42.678;23.312;2023-04-05T13:23:31;0.70;;;0.70;;
5807;SDS011;2930;42.678;23.312;2023-04-05T13:25:57;0.60;;;0.50;;
5807;SDS011;2930;42.678;23.312;2023-04-05T13:28:23;0.70;;;0.70;;
5807;SDS011;2930;42.678;23.312;2023-04-05T13:30:50;0.40;;;0.40;;
5807;SDS011;2930;42.678;23.312;2023-04-05T13:33:16;0.73;;;0.73;;
5807;SDS011;2930;42.678;23.312;2023-04-05T13:35:42;0.70;;;0.40;;
5807;SDS011;2930;42.678;23.312;2023-04-05T13:38:08;0.40;;;0.40;;
5807;SDS011;2930;42.678;23.312;2023-04-05T13:40:33;0.87;;;0.60;;
5807;SDS011;2930;42.678;23.312;2023-04-05T13:42:59;0.67;;;0.67;;
5807;SDS011;2930;42.678;23.312;2023-04-05T13:45:25;0.47;;;0.47;;
5807;SDS011;2930;42.678;23.312;2023-04-05T13:47:56;0.40;;;0.40;;
5807;SDS011;2930;42.678;23.312;2023-04-05T13:50:22;0.50;;;0.50;;
5807;SDS011;2930;42.678;23.312;2023-04-05T13:52:48;0.43;;;0.43;;
5807;SDS011;2930;42.678;23.312;2023-04-05T13:55:15;0.83;;;0.37;;
5807;SDS011;2930;42.678;23.312;2023-04-05T13:57:41;0.50;;;0.50;;
5807;SDS011;2930;42.678;23.312;2023-04-05T14:00:07;0.30;;;0.30;;
5807;SDS011;2930;42.678;23.312;2023-04-05T14:02:33;1.17;;;1.07;;
5807;SDS011;2930;42.678;23.312;2023-04-05T14:04:59;0.47;;;0.47;;
5807;SDS011;2930;42.678;23.312;2023-04-05T14:07:25;0.50;;;0.50;;
5807;SDS011;2930;42.678;23.312;2023-04-05T14:09:51;0.93;;;0.53;;
5807;SDS011;2930;42.678;23.312;2023-04-05T14:12:17;0.53;;;0.53;;
5807;SDS011;2930;42.678;23.312;2023-04-05T14:14:43;0.80;;;0.77;;
5807;SDS011;2930;42.678;23.312;2023-04-05T14:17:09;0.50;;;0.50;;
5807;SDS011;2930;42.678;23.312;2023-04-05T14:19:36;0.70;;;0.60;;
5807;SDS011;2930;42.678;23.312;2023-04-05T14:22:02;0.60;;;0.60;;
5807;SDS011;2930;42.678;23.312;2023-04-05T14:24:28;0.57;;;0.57;;
5807;SDS011;2930;42.678;23.312;2023-04-05T14:26:54;1.17;;;0.70;;
5807;SDS011;2930;42.678;23.312;2023-04-05T14:29:20;0.70;;;0.70;;
5807;SDS011;2930;42.678;23.312;2023-04-05T14:31:46;0.63;;;0.63;;
5807;SDS011;2930;42.678;23.312;2023-04-05T14:34:12;0.67;;;0.67;;
5807;SDS011;2930;42.678;23.312;2023-04-05T14:36:38;0.70;;;0.70;;
5807;SDS011;2930;42.678;23.312;2023-04-05T14:39:04;1.67;;;0.80;;
5807;SDS011;2930;42.678;23.312;2023-04-05T14:41:30;0.50;;;0.50;;
5807;SDS011;2930;42.678;23.312;2023-04-05T14:43:56;0.47;;;0.47;;
5807;SDS011;2930;42.678;23.312;2023-04-05T14:46:22;0.57;;;0.57;;
5807;SDS011;2930;42.678;23.312;2023-04-05T14:48:48;0.40;;;0.40;;
5807;SDS011;2930;42.678;23.312;2023-04-05T14:51:14;0.77;;;0.60;;
5807;SDS011;2930;42.678;23.312;2023-04-05T14:53:39;0.70;;;0.57;;
5807;SDS011;2930;42.678;23.312;2023-04-05T14:56:05;0.60;;;0.60;;
5807;SDS011;2930;42.678;23.312;2023-04-05T14:58:34;0.93;;;0.77;;
5807;SDS011;2930;42.678;23.312;2023-04-05T15:01:00;0.70;;;0.70;;
5807;SDS011;2930;42.678;23.312;2023-04-05T15:03:26;0.60;;;0.60;;
5807;SDS011;2930;42.678;23.312;2023-04-05T15:05:52;0.60;;;0.60;;
5807;SDS011;2930;42.678;23.312;2023-04-05T15:08:17;0.57;;;0.57;;
5807;SDS011;2930;42.678;23.312;2023-04-05T15:10:44;1.83;;;1.00;;
5807;SDS011;2930;42.678;23.312;2023-04-05T15:13:10;0.60;;;0.60;;
5807;SDS011;2930;42.678;23.312;2023-04-05T15:15:36;0.70;;;0.70;;
5807;SDS011;2930;42.678;23.312;2023-04-05T15:18:02;0.90;;;0.90;;
5807;SDS011;2930;42.678;23.312;2023-04-05T15:20:28;0.43;;;0.43;;
5807;SDS011;2930;42.678;23.312;2023-04-05T15:22:54;0.40;;;0.40;;
5807;SDS011;2930;42.678;23.312;2023-04-05T15:25:20;0.43;;;0.43;;
5807;SDS011;2930;42.678;23.312;2023-04-05T15:27:46;0.67;;;0.67;;
5807;SDS011;2930;42.678;23.312;2023-04-05T15:30:12;1.03;;;0.93;;
5807;SDS011;2930;42.678;23.312;2023-04-05T15:32:38;0.80;;;0.80;;
5807;SDS011;2930;42.678;23.312;2023-04-05T15:35:04;0.70;;;0.60;;
5807;SDS011;2930;42.678;23.312;2023-04-05T15:37:30;0.43;;;0.43;;
5807;SDS011;2930;42.678;23.312;2023-04-05T15:39:55;0.50;;;0.50;;
5807;SDS011;2930;42.678;23.312;2023-04-05T15:42:21;0.63;;;0.40;;